createdAt,value
2024-01-20T00:00:37.178Z,94788.91
2024-01-20T00:03:40.258Z,94791.59
2024-01-20T00:06:45.524Z,94792.19
2024-01-20T00:09:51.760Z,94800.97
2024-01-20T00:12:55.748Z,94801.50
2024-01-20T00:15:59.819Z,94808.59
2024-01-20T00:19:03.391Z,94814.63
2024-01-20T00:22:06.624Z,94832.03
2024-01-20T00:25:11.708Z,94835.66
2024-01-20T00:28:15.670Z,94825.28
2024-01-20T00:31:18.898Z,94851.31
2024-01-20T00:34:22.055Z,94842.22
2024-01-20T00:37:25.386Z,94851.31
2024-01-20T00:40:29.804Z,94843.03
2024-01-20T00:43:32.774Z,94858.72
2024-01-20T00:46:36.222Z,94848.06
2024-01-20T00:49:39.284Z,94864.53
2024-01-20T00:52:42.403Z,94860.75
2024-01-20T00:55:47.165Z,94849.31
2024-01-20T00:58:50.173Z,94861.06
2024-01-20T01:01:53.277Z,94859.19
2024-01-20T01:04:56.504Z,94886.63
2024-01-20T01:07:59.783Z,94878.75
2024-01-20T01:11:04.688Z,94901.03
2024-01-20T01:14:07.865Z,94890.84
2024-01-20T01:17:10.957Z,94897.28
2024-01-20T01:20:14.491Z,94911.38
2024-01-20T01:23:17.825Z,94898.06
2024-01-20T01:26:22.584Z,94907.16
2024-01-20T01:29:25.839Z,94920.47
2024-01-20T01:32:29.079Z,94916.72
2024-01-20T01:35:32.171Z,94919.84
2024-01-20T01:38:35.186Z,94934.75
2024-01-20T01:41:39.571Z,94922.84
2024-01-20T01:44:42.570Z,94928.63
2024-01-20T01:47:45.924Z,94919.84
2024-01-20T01:50:50.630Z,94911.50
2024-01-20T01:53:54.149Z,94911.88
2024-01-20T01:57:01.244Z,94911.25
2024-01-20T02:00:05.626Z,94915.78
2024-01-20T02:03:09.518Z,94926.44
2024-01-20T02:06:12.630Z,94926.13
2024-01-20T02:09:15.853Z,94932.25
2024-01-20T02:12:21.074Z,94915.00
2024-01-20T02:15:25.075Z,94916.88
2024-01-20T02:18:28.281Z,94909.69
2024-01-20T02:21:31.389Z,94914.22
2024-01-20T02:24:35.942Z,94924.56
2024-01-20T02:27:39.419Z,94910.78
2024-01-20T02:30:43.930Z,94923.00
2024-01-20T02:33:47.076Z,94921.91
2024-01-20T02:36:50.184Z,94918.94
2024-01-20T02:39:55.052Z,94933.66
2024-01-20T02:42:58.041Z,94927.22
2024-01-20T02:46:01.107Z,94928.81
2024-01-20T02:49:04.370Z,94956.53
2024-01-20T02:52:07.934Z,94953.88
2024-01-20T02:55:12.384Z,94986.34
2024-01-20T02:58:15.406Z,94971.44
2024-01-20T03:01:18.657Z,94970.66
2024-01-20T03:04:21.975Z,94968.31
2024-01-20T03:07:25.089Z,94986.97
2024-01-20T03:10:29.575Z,94985.56
2024-01-20T03:13:32.638Z,94988.06
2024-01-20T03:16:35.595Z,94988.06
2024-01-20T03:19:38.600Z,94993.84
2024-01-20T03:22:41.593Z,95008.59
2024-01-20T03:25:45.943Z,95014.69
2024-01-20T03:28:48.966Z,95018.16
2024-01-20T03:31:52.875Z,95027.25
2024-01-20T03:34:55.947Z,95036.81
2024-01-20T03:37:58.952Z,95046.38
2024-01-20T03:41:03.602Z,95049.34
2024-01-20T03:44:06.911Z,95056.25
2024-01-20T03:47:10.008Z,95060.78
2024-01-20T03:50:13.265Z,95054.69
2024-01-20T03:53:16.327Z,95068.00
2024-01-20T03:56:20.682Z,95060.78
2024-01-20T03:59:23.715Z,95074.91
2024-01-20T04:02:26.734Z,95075.22
2024-01-20T04:05:29.716Z,95081.94
2024-01-20T04:08:32.805Z,95080.38
2024-01-20T04:11:37.294Z,95079.44
2024-01-20T04:14:40.270Z,95092.78
2024-01-20T04:17:43.349Z,95084.47
2024-01-20T04:20:46.844Z,95090.41
2024-01-20T04:23:49.951Z,95095.25
2024-01-20T04:26:54.425Z,95111.25
2024-01-20T04:29:57.597Z,95107.19
2024-01-20T04:33:00.744Z,95125.84
2024-01-20T04:36:04.010Z,95122.38
2024-01-20T04:39:07.061Z,95136.81
2024-01-20T04:42:11.515Z,95135.72
2024-01-20T04:45:16.076Z,95133.22
2024-01-20T04:48:21.181Z,95150.13
2024-01-20T04:51:25.254Z,95155.16
2024-01-20T04:54:28.662Z,95149.03
2024-01-20T04:57:33.182Z,95165.03
2024-01-20T05:00:37.270Z,95166.91
2024-01-20T05:03:40.416Z,95162.84
2024-01-20T05:06:46.725Z,95163.16
2024-01-20T05:09:49.777Z,95165.63
2024-01-20T05:12:54.223Z,95183.69
2024-01-20T05:15:57.300Z,95187.91
2024-01-20T05:19:00.565Z,95173.50
2024-01-20T05:22:03.713Z,95184.47
2024-01-20T05:25:07.557Z,95180.41
2024-01-20T05:28:11.955Z,95188.72
2024-01-20T05:31:14.926Z,95175.13
2024-01-20T05:34:18.117Z,95192.47
2024-01-20T05:37:21.152Z,95190.09
2024-01-20T05:40:24.146Z,95183.19
2024-01-20T05:43:28.508Z,95179.44
2024-01-20T05:46:31.570Z,95186.97
2024-01-20T05:49:34.812Z,95197.13
2024-01-20T05:52:37.871Z,95195.56
2024-01-20T05:55:40.893Z,95194.47
2024-01-20T05:58:45.359Z,95194.75
2024-01-20T06:01:51.753Z,95186.50
2024-01-20T06:04:54.890Z,95196.44
2024-01-20T06:07:57.859Z,95204.44
2024-01-20T06:11:00.973Z,95214.00
2024-01-20T06:14:05.497Z,95222.47
2024-01-20T06:17:08.544Z,95219.81
2024-01-20T06:20:12.204Z,95223.88
2024-01-20T06:23:15.453Z,95235.31
2024-01-20T06:26:18.813Z,95231.06
2024-01-20T06:29:23.179Z,95240.94
2024-01-20T06:32:26.183Z,95242.34
2024-01-20T06:35:29.206Z,95249.25
2024-01-20T06:38:32.414Z,95249.53
2024-01-20T06:41:35.403Z,95256.75
2024-01-20T06:44:39.827Z,95254.88
2024-01-20T06:47:42.955Z,95268.50
2024-01-20T06:50:46.023Z,95267.72
2024-01-20T06:53:50.979Z,95257.34
2024-01-20T06:56:54.069Z,95268.31
2024-01-20T06:59:58.451Z,95273.66
2024-01-20T07:03:01.586Z,95272.03
2024-01-20T07:06:05.813Z,95279.25
2024-01-20T07:09:08.906Z,95283.84
2024-01-20T07:12:12.007Z,95299.81
2024-01-20T07:15:16.639Z,95302.97
2024-01-20T07:18:19.858Z,95305.84
2024-01-20T07:21:22.953Z,95304.75
2024-01-20T07:24:26.009Z,95301.59
2024-01-20T07:27:29.033Z,95306.91
2024-01-20T07:30:33.569Z,95321.88
2024-01-20T07:33:36.794Z,95326.22
2024-01-20T07:36:40.171Z,95330.75
2024-01-20T07:39:43.225Z,95334.50
2024-01-20T07:42:46.359Z,95329.72
2024-01-20T07:45:55.178Z,95334.78
2024-01-20T07:48:58.335Z,95340.09
2024-01-20T07:52:01.410Z,95334.56
2024-01-20T07:55:04.395Z,95337.50
2024-01-20T07:58:07.366Z,95350.81
2024-01-20T08:01:11.797Z,95364.31
2024-01-20T08:04:14.898Z,95359.00
2024-01-20T08:07:18.013Z,95362.69
2024-01-20T08:10:21.362Z,95378.94
2024-01-20T08:13:24.373Z,95368.41
2024-01-20T08:16:30.038Z,95384.81
2024-01-20T08:19:33.298Z,95392.50
2024-01-20T08:22:36.636Z,95383.81
2024-01-20T08:25:39.711Z,95377.06
2024-01-20T08:28:42.838Z,95388.00
2024-01-20T08:31:47.217Z,95410.84
2024-01-20T08:34:50.445Z,95406.88
2024-01-20T08:37:53.462Z,95406.75
2024-01-20T08:40:56.656Z,95407.41
2024-01-20T08:43:59.921Z,95401.28
2024-01-20T08:47:04.340Z,95404.75
2024-01-20T08:50:08.089Z,95403.38
2024-01-20T08:53:11.120Z,95409.47
2024-01-20T08:56:14.176Z,95422.50
2024-01-20T08:59:17.888Z,95421.03
2024-01-20T09:02:22.276Z,95427.38
2024-01-20T09:05:25.322Z,95422.66
2024-01-20T09:08:28.389Z,95429.31
2024-01-20T09:11:31.468Z,95430.69
2024-01-20T09:14:34.515Z,95431.97
2024-01-20T09:17:38.900Z,95447.94
2024-01-20T09:20:42.082Z,95436.22
2024-01-20T09:23:45.257Z,95383.31
2024-01-20T09:26:48.258Z,95442.84
2024-01-20T09:29:51.254Z,95442.22
2024-01-20T09:32:55.805Z,95437.47
2024-01-20T09:35:58.866Z,95445.53
2024-01-20T09:39:02.029Z,95440.81
2024-01-20T09:42:05.896Z,95441.31
2024-01-20T09:45:09.665Z,95447.88
2024-01-20T09:48:14.249Z,95438.59
2024-01-20T09:51:17.592Z,95451.38
2024-01-20T09:54:22.531Z,95450.66
2024-01-20T09:57:26.380Z,95449.09
2024-01-20T10:00:30.310Z,95453.16
2024-01-20T10:03:36.939Z,95449.47
2024-01-20T10:06:40.348Z,95452.25
2024-01-20T10:09:43.609Z,95451.06
2024-01-20T10:12:50.735Z,95444.56
2024-01-20T10:15:56.128Z,95435.78
2024-01-20T10:19:00.602Z,95436.78
2024-01-20T10:22:09.332Z,95429.59
2024-01-20T10:25:19.175Z,95437.31
2024-01-20T10:28:24.993Z,95438.78
2024-01-20T10:31:28.156Z,95437.69
2024-01-20T10:34:32.714Z,95433.81
2024-01-20T10:37:39.140Z,95433.59
2024-01-20T10:40:44.178Z,95436.97
2024-01-20T10:43:55.165Z,95440.72
2024-01-20T10:47:05.005Z,95452.16
2024-01-20T10:50:10.638Z,95448.09
2024-01-20T10:53:13.810Z,95445.63
2024-01-20T10:56:18.485Z,95446.44
2024-01-20T10:59:27.195Z,95444.06
2024-01-20T11:02:30.469Z,95444.66
2024-01-20T11:05:35.536Z,95443.56
2024-01-20T11:08:38.667Z,95422.66
2024-01-20T11:11:42.795Z,95432.28
2024-01-20T11:14:52.998Z,95425.59
2024-01-20T11:17:56.067Z,95430.97
2024-01-20T11:21:02.677Z,95434.50
2024-01-20T11:24:06.711Z,95442.09
2024-01-20T11:27:11.409Z,95447.16
2024-01-20T11:30:17.403Z,95441.84
2024-01-20T11:33:21.110Z,95447.16
2024-01-20T11:36:29.501Z,95441.03
2024-01-20T11:39:32.616Z,95448.75
2024-01-20T11:42:35.956Z,95449.09
2024-01-20T11:45:39.157Z,95452.47
2024-01-20T11:48:43.624Z,95456.97
2024-01-20T11:51:48.262Z,95452.28
2024-01-20T11:54:51.496Z,95451.84
2024-01-20T11:57:56.535Z,95454.00
2024-01-20T12:01:01.374Z,95462.03
2024-01-20T12:04:04.974Z,95465.00
2024-01-20T12:07:09.934Z,95465.16
2024-01-20T12:10:13.804Z,95463.63
2024-01-20T12:13:17.955Z,95457.13
2024-01-20T12:16:21.714Z,95461.28
2024-01-20T12:19:24.871Z,95461.22
2024-01-20T12:22:29.391Z,95462.50
2024-01-20T12:25:32.945Z,95470.22
2024-01-20T12:28:36.574Z,95466.94
2024-01-20T12:31:39.715Z,95472.28
2024-01-20T12:34:42.893Z,95476.22
2024-01-20T12:37:49.948Z,95478.28
2024-01-20T12:40:53.173Z,95479.09
2024-01-20T12:43:56.201Z,95486.81
2024-01-20T12:46:59.218Z,95484.16
2024-01-20T12:50:02.490Z,95492.63
2024-01-20T12:53:07.917Z,95499.56
2024-01-20T12:56:11.013Z,95508.63
2024-01-20T12:59:14.117Z,95517.41
2024-01-20T13:02:17.176Z,95517.19
2024-01-20T13:05:20.368Z,95519.94
2024-01-20T13:08:24.989Z,95525.38
2024-01-20T13:11:29.481Z,95528.72
2024-01-20T13:14:32.850Z,95527.28
2024-01-20T13:17:36.904Z,95534.97
2024-01-20T13:20:40.075Z,95532.03
2024-01-20T13:23:47.710Z,95536.75
2024-01-20T13:26:50.814Z,95536.47
2024-01-20T13:29:53.821Z,95552.47
2024-01-20T13:32:56.921Z,95555.41
2024-01-20T13:35:59.993Z,95552.16
2024-01-20T13:39:06.359Z,95559.66
2024-01-20T13:42:11.086Z,95563.13
2024-01-20T13:45:14.208Z,95561.25
2024-01-20T13:48:17.363Z,95559.88
2024-01-20T13:51:22.989Z,95568.09
2024-01-20T13:54:27.691Z,95570.94
2024-01-20T13:57:31.418Z,95578.66
2024-01-20T14:00:34.956Z,95580.03
2024-01-20T14:03:38.392Z,95590.69
2024-01-20T14:06:41.845Z,95591.69
2024-01-20T14:09:46.409Z,95598.59
2024-01-20T14:12:49.594Z,95594.84
2024-01-20T14:15:52.808Z,95600.19
2024-01-20T14:18:56.813Z,95610.84
2024-01-20T14:21:59.892Z,95613.72
2024-01-20T14:25:06.462Z,95607.78
2024-01-20T14:28:09.975Z,95607.22
2024-01-20T14:31:14.040Z,95619.78
2024-01-20T14:34:17.199Z,95622.94
2024-01-20T14:37:20.578Z,95633.59
2024-01-20T14:40:25.026Z,95632.03
2024-01-20T14:43:28.184Z,95624.50
2024-01-20T14:46:33.092Z,95626.09
2024-01-20T14:49:36.370Z,95630.44
2024-01-20T14:52:39.474Z,95635.97
2024-01-20T14:55:43.851Z,95638.84
2024-01-20T14:58:47.135Z,95642.28
2024-01-20T15:01:50.245Z,95650.09
2024-01-20T15:04:53.774Z,95653.03
2024-01-20T15:07:57.233Z,95661.34
2024-01-20T15:11:01.692Z,95662.91
2024-01-20T15:14:08.863Z,95665.88
2024-01-20T15:17:13.358Z,95668.03
2024-01-20T15:20:17.412Z,95670.97
2024-01-20T15:23:22.508Z,95675.25
2024-01-20T15:26:26.917Z,95676.81
2024-01-20T15:29:31.605Z,95681.63
2024-01-20T15:32:34.667Z,95681.63
2024-01-20T15:35:38.252Z,95692.47
2024-01-20T15:38:41.327Z,95696.03
2024-01-20T15:41:47.209Z,95700.50
2024-01-20T15:44:50.509Z,95707.97
2024-01-20T15:47:53.642Z,95704.69
2024-01-20T15:50:56.744Z,95714.78
2024-01-20T15:53:59.746Z,95717.75
2024-01-20T15:57:04.890Z,95721.50
2024-01-20T16:00:08.864Z,95731.88
2024-01-20T16:03:11.947Z,95732.38
2024-01-20T16:06:15.179Z,95736.44
2024-01-20T16:09:18.596Z,95744.44
2024-01-20T16:12:23.176Z,95754.31
2024-01-20T16:15:26.238Z,95750.44
2024-01-20T16:18:29.552Z,95763.31
2024-01-20T16:21:33.317Z,95771.81
2024-01-20T16:24:36.586Z,95775.50
2024-01-20T16:27:41.128Z,95776.28
2024-01-20T16:30:44.394Z,95781.38
2024-01-20T16:33:47.863Z,95782.56
2024-01-20T16:36:51.533Z,95782.94
2024-01-20T16:39:58.909Z,95784.34
2024-01-20T16:43:03.327Z,95789.69
2024-01-20T16:46:06.493Z,95798.41
2024-01-20T16:49:09.920Z,95801.38
2024-01-20T16:52:13.821Z,95812.56
2024-01-20T16:55:17.281Z,95807.22
2024-01-20T16:58:21.707Z,95814.75
2024-01-20T17:01:24.842Z,95822.72
2024-01-20T17:04:28.281Z,95822.44
2024-01-20T17:07:31.413Z,95836.00
2024-01-20T17:10:34.912Z,95842.97
2024-01-20T17:13:39.602Z,95836.09
2024-01-20T17:16:42.659Z,95834.75
2024-01-20T17:19:45.902Z,95842.81
2024-01-20T17:22:49.026Z,95843.69
2024-01-20T17:25:53.401Z,95848.00
2024-01-20T17:28:58.324Z,95851.19
2024-01-20T17:32:02.790Z,95855.22
2024-01-20T17:35:06.404Z,95867.47
2024-01-20T17:38:09.458Z,95860.53
2024-01-20T17:41:12.589Z,95871.59
2024-01-20T17:44:17.603Z,95872.50
2024-01-20T17:47:20.722Z,95878.94
2024-01-20T17:50:25.411Z,95879.63
2024-01-20T17:53:34.814Z,95887.06
2024-01-20T17:56:38.181Z,95886.75
2024-01-20T17:59:42.637Z,95882.78
2024-01-20T18:02:47.096Z,95883.88
2024-01-20T18:05:50.341Z,95894.19
2024-01-20T18:08:53.600Z,95887.44
2024-01-20T18:11:56.642Z,95888.72
2024-01-20T18:15:01.114Z,95896.44
2024-01-20T18:18:04.330Z,95897.75
2024-01-20T18:21:10.667Z,95909.19
2024-01-20T18:24:14.353Z,95902.00
2024-01-20T18:27:17.463Z,95910.50
2024-01-20T18:30:21.900Z,95917.41
2024-01-20T18:33:26.032Z,95920.09
2024-01-20T18:36:29.137Z,95917.16
2024-01-20T18:39:32.264Z,95928.03
2024-01-20T18:42:35.315Z,95939.50
2024-01-20T18:45:40.122Z,95933.91
2024-01-20T18:48:43.354Z,95934.72
2024-01-20T18:51:46.777Z,95936.59
2024-01-20T18:54:49.836Z,95944.63
2024-01-20T18:57:52.856Z,95949.72
2024-01-20T19:00:57.385Z,95945.53
2024-01-20T19:04:00.506Z,95950.75
2024-01-20T19:07:03.592Z,95961.13
2024-01-20T19:10:10.989Z,95965.63
2024-01-20T19:13:14.146Z,95965.91
2024-01-20T19:16:18.803Z,95960.28
2024-01-20T19:19:21.924Z,95973.34
2024-01-20T19:22:25.001Z,95972.56
2024-01-20T19:25:28.222Z,95972.28
2024-01-20T19:28:31.265Z,95977.31
2024-01-20T19:31:36.495Z,95979.69
2024-01-20T19:34:39.705Z,95984.53
2024-01-20T19:37:42.829Z,95978.41
2024-01-20T19:40:46.506Z,95978.75
2024-01-20T19:43:49.586Z,95987.53
2024-01-20T19:46:54.027Z,95988.00
2024-01-20T19:49:57.069Z,95990.06
2024-01-20T19:53:00.411Z,95987.41
2024-01-20T19:56:05.737Z,95989.78
2024-01-20T19:59:08.738Z,95987.69
2024-01-20T20:02:13.214Z,95987.41
2024-01-20T20:05:16.889Z,95991.41
2024-01-20T20:08:24.023Z,95986.63
2024-01-20T20:11:27.184Z,95991.41
2024-01-20T20:14:30.169Z,95992.19
2024-01-20T20:17:35.361Z,95997.53
2024-01-20T20:20:38.514Z,95992.72
2024-01-20T20:23:41.596Z,95991.84
2024-01-20T20:26:44.798Z,95985.03
2024-01-20T20:29:47.929Z,95990.16
2024-01-20T20:32:52.656Z,95991.09
2024-01-20T20:35:55.662Z,95992.38
2024-01-20T20:38:58.908Z,95991.16
2024-01-20T20:42:01.962Z,95991.31
2024-01-20T20:45:05.959Z,95990.22
2024-01-20T20:48:10.527Z,95988.88
2024-01-20T20:51:13.600Z,95992.63
2024-01-20T20:54:16.792Z,95983.31
2024-01-20T20:57:20.228Z,95986.50
2024-01-20T21:00:23.330Z,95991.56
2024-01-20T21:03:27.892Z,95984.63
2024-01-20T21:06:31.053Z,95990.75
2024-01-20T21:09:34.131Z,95986.72
2024-01-20T21:12:37.233Z,95997.94
2024-01-20T21:15:41.963Z,96004.84
2024-01-20T21:18:46.611Z,96009.16
2024-01-20T21:21:49.836Z,96005.66
2024-01-20T21:24:53.704Z,96012.84
2024-01-20T21:27:56.828Z,96014.19
2024-01-20T21:31:01.423Z,96006.72
2024-01-20T21:34:05.983Z,96023.75
2024-01-20T21:37:09.382Z,96019.22
2024-01-20T21:40:13.322Z,96013.59
2024-01-20T21:43:17.432Z,96020.78
2024-01-20T21:46:25.993Z,96021.59
2024-01-20T21:49:38.435Z,96026.63
2024-01-20T21:52:42.084Z,96019.72
2024-01-20T21:55:46.154Z,96030.69
2024-01-20T21:58:50.312Z,96020.78
2024-01-20T22:01:54.002Z,96022.66
2024-01-20T22:04:59.256Z,96034.94
2024-01-20T22:08:03.253Z,96029.31
2024-01-20T22:11:07.714Z,96029.31
2024-01-20T22:14:11.561Z,96033.06
2024-01-20T22:17:18.197Z,96037.81
2024-01-20T22:20:34.185Z,96034.34
2024-01-20T22:23:42.521Z,96034.59
2024-01-20T22:26:50.843Z,96034.88
2024-01-20T22:30:02.116Z,96033.81
2024-01-20T22:33:11.951Z,96025.31
2024-01-20T22:36:18.625Z,96026.34
2024-01-20T22:39:28.870Z,96027.16
2024-01-20T22:42:36.202Z,96015.53
2024-01-20T22:45:47.171Z,96009.94
2024-01-20T22:48:56.498Z,96008.41
2024-01-20T22:52:06.052Z,96011.63
2024-01-20T22:55:14.467Z,96014.88
2024-01-20T22:58:21.241Z,96010.63
2024-01-20T23:01:28.389Z,96012.50
2024-01-20T23:04:36.975Z,96019.69
2024-01-20T23:07:47.222Z,96010.69
2024-01-20T23:10:54.693Z,96014.94
2024-01-20T23:14:03.392Z,96020.84
2024-01-20T23:17:13.409Z,96022.69
2024-01-20T23:20:27.647Z,96020.31
2024-01-20T23:23:41.098Z,96011.56
2024-01-20T23:26:51.623Z,96016.13
2024-01-20T23:29:57.387Z,96010.78
2024-01-20T23:33:08.430Z,96020.38
2024-01-20T23:36:17.933Z,96016.69
2024-01-20T23:39:31.738Z,96025.19
2024-01-20T23:42:41.819Z,96020.44
2024-01-20T23:45:51.440Z,96024.19
2024-01-20T23:48:59.208Z,96024.19
2024-01-20T23:52:09.334Z,96027.41
2024-01-20T23:55:19.679Z,96032.47
2024-01-20T23:58:29.379Z,96036.19
